Time;durP1;ratioP1;P1;durP2;ratioP2;P2;SDS_P1;SDS_P2;PMS_P1;PMS_P2;Temp;Humidity;BMP_temperature;BMP_pressure;BME280_temperature;BME280_humidity;BME280_pressure;Samples;Min_cycle;Max_cycle;Signal;HPM_P1;HPM_P2
2023/12/20 00:00:42;;;;;;;8.68;6.25;;;;;;;4.80;80.40;100503.28;2524742;28;20146;-77
2023/12/20 00:01:56;;;;;;;6.28;5.32;;;;;;;4.79;80.19;100501.53;2525928;28;20049;-78
2023/12/20 00:03:10;;;;;;;6.78;5.55;;;;;;;4.78;80.10;100501.53;2525646;28;20758;-78
2023/12/20 00:04:24;;;;;;;10.88;5.78;;;;;;;4.78;80.19;100510.16;2525540;28;20049;-78
2023/12/20 00:05:41;;;;;;;6.75;5.93;;;;;;;4.76;80.44;100503.22;2525383;28;20050;-78
2023/12/20 00:06:55;;;;;;;8.10;5.95;;;;;;;4.77;80.50;100512.72;2525204;28;20125;-78
2023/12/20 00:08:10;;;;;;;8.52;4.72;;;;;;;4.76;80.61;100505.81;2525061;28;20042;-78
2023/12/20 00:09:24;;;;;;;10.25;5.95;;;;;;;4.74;80.57;100505.78;2523619;28;20108;-77
2023/12/20 00:10:38;;;;;;;9.25;5.65;;;;;;;4.75;80.88;100498.88;2525893;28;20423;-77
2023/12/20 00:11:52;;;;;;;7.93;6.18;;;;;;;4.74;80.94;100502.34;2522726;28;20048;-77
2023/12/20 00:13:07;;;;;;;8.32;6.47;;;;;;;4.73;80.87;100501.47;2523212;28;20052;-77
2023/12/20 00:14:21;;;;;;;9.82;6.43;;;;;;;4.73;80.86;100504.06;2523638;28;20050;-78
2023/12/20 00:15:34;;;;;;;9.75;5.15;;;;;;;4.73;80.88;100501.47;2522548;28;20392;-77
2023/12/20 00:16:49;;;;;;;8.48;5.75;;;;;;;4.73;81.08;100504.06;2523978;28;20052;-79
2023/12/20 00:18:03;;;;;;;8.05;5.55;;;;;;;4.72;81.11;100499.72;2525993;28;20045;-78
2023/12/20 00:19:17;;;;;;;7.90;6.05;;;;;;;4.72;81.00;100506.63;2525334;28;20048;-78
2023/12/20 00:20:30;;;;;;;7.50;5.72;;;;;;;4.71;81.20;100503.16;2524417;28;20554;-77
2023/12/20 00:21:45;;;;;;;10.55;6.97;;;;;;;4.72;81.33;100511.78;2522645;28;20046;-77
2023/12/20 00:22:58;;;;;;;8.27;5.80;;;;;;;4.71;81.55;100502.31;2522832;28;20064;-77
2023/12/20 00:24:14;;;;;;;6.63;5.95;;;;;;;4.69;81.59;100504.00;2523608;28;20544;-77
2023/12/20 00:25:28;;;;;;;9.00;5.55;;;;;;;4.68;81.63;100497.97;2523002;28;20054;-77
2023/12/20 00:26:42;;;;;;;7.63;5.80;;;;;;;4.69;81.69;100501.41;2523332;28;20042;-77
2023/12/20 00:27:56;;;;;;;9.55;6.50;;;;;;;4.67;81.54;100497.94;2522395;28;20042;-77
2023/12/20 00:29:10;;;;;;;8.35;5.78;;;;;;;4.65;81.91;100505.69;2523275;28;20045;-79
2023/12/20 00:30:23;;;;;;;6.97;5.80;;;;;;;4.65;81.97;100503.09;2523947;28;20049;-77
2023/12/20 00:31:38;;;;;;;9.55;6.07;;;;;;;4.64;81.82;100506.50;2523605;28;20053;-77
2023/12/20 00:32:51;;;;;;;9.10;6.85;;;;;;;4.63;82.13;100496.16;2523549;28;20042;-79
2023/12/20 00:34:06;;;;;;;8.68;6.18;;;;;;;4.63;82.07;100497.03;2522108;28;20045;-76
2023/12/20 00:35:19;;;;;;;9.77;6.00;;;;;;;4.64;81.97;100503.94;2522682;28;20667;-76
2023/12/20 00:36:34;;;;;;;8.93;6.63;;;;;;;4.64;82.12;100500.47;2522654;28;20060;-77
2023/12/20 00:37:47;;;;;;;8.52;5.72;;;;;;;4.63;82.21;100499.63;2522235;28;20388;-76
2023/12/20 00:39:02;;;;;;;7.57;6.68;;;;;;;4.64;82.16;100503.06;2522798;28;20046;-76
2023/12/20 00:40:17;;;;;;;8.82;6.97;;;;;;;4.66;82.46;100510.00;2521604;28;20103;-77
2023/12/20 00:41:31;;;;;;;9.25;6.28;;;;;;;4.65;82.46;100505.69;2522479;28;20061;-76
2023/12/20 00:42:46;;;;;;;8.10;5.40;;;;;;;4.65;82.68;100504.81;2521941;28;20422;-77
2023/12/20 00:44:01;;;;;;;9.70;5.28;;;;;;;4.64;82.62;100514.25;2522252;28;20074;-77
2023/12/20 00:45:14;;;;;;;8.38;5.38;;;;;;;4.64;82.65;100510.81;2522865;28;20049;-77
2023/12/20 00:46:29;;;;;;;7.97;5.30;;;;;;;4.66;82.82;100514.31;2522432;28;20056;-77
2023/12/20 00:47:42;;;;;;;6.75;4.80;;;;;;;4.66;82.73;100515.16;2520556;28;20049;-77
2023/12/20 00:48:57;;;;;;;8.27;5.80;;;;;;;4.67;82.89;100514.31;2522746;28;20083;-77
2023/12/20 00:50:10;;;;;;;7.88;6.15;;;;;;;4.68;82.73;100512.59;2522336;28;20061;-77
2023/12/20 00:51:25;;;;;;;9.05;6.53;;;;;;;4.67;82.88;100519.47;2522350;28;20060;-77
2023/12/20 00:52:38;;;;;;;9.02;5.88;;;;;;;4.66;83.10;100515.16;2521797;28;20054;-77
2023/12/20 00:53:54;;;;;;;7.57;6.25;;;;;;;4.67;83.10;100510.84;2522380;28;20492;-78
2023/12/20 00:55:08;;;;;;;7.15;6.05;;;;;;;4.68;82.98;100508.31;2522683;28;20057;-77
2023/12/20 00:56:24;;;;;;;9.38;6.22;;;;;;;4.69;83.20;100516.91;2522015;28;20072;-77
2023/12/20 00:57:37;;;;;;;9.18;6.65;;;;;;;4.70;83.14;100516.94;2521333;28;20057;-76
2023/12/20 00:58:51;;;;;;;7.85;5.30;;;;;;;4.69;83.31;100522.94;2521416;28;20041;-76
2023/12/20 01:00:06;;;;;;;8.68;7.05;;;;;;;4.69;83.35;100519.50;2523047;28;20591;-76
2023/12/20 01:01:20;;;;;;;10.32;7.20;;;;;;;4.70;83.35;100526.41;2522005;28;20162;-76
2023/12/20 01:02:34;;;;;;;8.63;7.13;;;;;;;4.70;83.39;100532.47;2521833;28;20419;-76
2023/12/20 01:03:51;;;;;;;7.68;5.28;;;;;;;4.72;83.45;100529.88;2521746;28;20042;-76
2023/12/20 01:05:05;;;;;;;9.43;7.43;;;;;;;4.72;83.47;100527.28;2522000;28;20696;-76
2023/12/20 01:06:19;;;;;;;7.72;5.60;;;;;;;4.72;83.46;100522.97;2522097;28;20042;-77
2023/12/20 01:07:33;;;;;;;8.60;5.90;;;;;;;4.73;83.62;100527.31;2513186;28;20047;-76
2023/12/20 01:08:47;;;;;;;8.48;6.07;;;;;;;4.73;83.40;100537.66;2521807;28;20104;-77
2023/12/20 01:10:01;;;;;;;9.98;5.97;;;;;;;4.74;83.43;100523.00;2522101;28;20046;-76
2023/12/20 01:11:15;;;;;;;8.80;5.65;;;;;;;4.75;83.49;100532.50;2521759;28;20050;-77
2023/12/20 01:12:30;;;;;;;9.00;5.43;;;;;;;4.74;83.28;100525.59;2521920;28;20057;-77
2023/12/20 01:13:44;;;;;;;10.25;6.15;;;;;;;4.74;83.59;100518.72;2521900;28;20605;-76
2023/12/20 01:14:58;;;;;;;11.60;6.57;;;;;;;4.74;83.58;100516.13;2522344;28;20053;-76
2023/12/20 01:16:13;;;;;;;8.02;6.68;;;;;;;4.74;83.55;100515.25;2521762;28;20504;-78
2023/12/20 01:17:26;;;;;;;7.50;5.13;;;;;;;4.74;83.76;100520.44;2521759;28;20456;-76
2023/12/20 01:18:41;;;;;;;8.57;7.25;;;;;;;4.74;83.75;100523.88;2522059;28;20045;-77
2023/12/20 01:19:54;;;;;;;10.98;6.70;;;;;;;4.73;83.79;100514.41;2521397;28;20487;-77
2023/12/20 01:21:08;;;;;;;6.82;6.05;;;;;;;4.73;84.00;100506.66;2521881;28;20046;-76
2023/12/20 01:22:22;;;;;;;7.88;6.18;;;;;;;4.72;83.83;100509.19;2522052;28;20050;-76
2023/12/20 01:23:36;;;;;;;10.77;8.30;;;;;;;4.72;84.03;100509.19;2522905;28;20151;-76
2023/12/20 01:24:50;;;;;;;10.15;7.20;;;;;;;4.70;83.89;100511.78;2523681;28;20050;-76
2023/12/20 01:26:05;;;;;;;9.43;5.82;;;;;;;4.70;83.88;100506.63;2524052;28;20049;-76
2023/12/20 01:27:18;;;;;;;8.45;6.07;;;;;;;4.72;83.93;100510.06;2523093;28;20076;-76
2023/12/20 01:28:34;;;;;;;7.35;5.78;;;;;;;4.72;84.02;100504.03;2523547;28;20085;-76
2023/12/20 01:29:48;;;;;;;8.82;6.20;;;;;;;4.72;84.03;100504.88;2523496;28;20057;-76
2023/12/20 01:31:02;;;;;;;8.75;5.88;;;;;;;4.71;84.01;100499.72;2523916;28;20052;-77
2023/12/20 01:32:15;;;;;;;8.00;6.43;;;;;;;4.72;83.81;100498.84;2523253;28;20526;-77
2023/12/20 01:33:30;;;;;;;10.18;7.35;;;;;;;4.71;84.08;100495.41;2523603;28;20049;-77
2023/12/20 01:34:43;;;;;;;8.82;7.25;;;;;;;4.72;83.99;100493.69;2523882;28;20053;-77
2023/12/20 01:35:58;;;;;;;8.13;6.50;;;;;;;4.71;84.16;100500.59;2523148;28;20041;-77
2023/12/20 01:37:11;;;;;;;9.02;7.32;;;;;;;4.72;83.99;100506.63;2523708;28;20046;-77
2023/12/20 01:38:25;;;;;;;8.48;7.25;;;;;;;4.70;84.28;100492.78;2523702;28;20051;-76
2023/12/20 01:39:39;;;;;;;10.63;7.35;;;;;;;4.70;83.86;100490.22;2523278;28;20046;-76
2023/12/20 01:40:53;;;;;;;11.90;7.72;;;;;;;4.71;84.19;100491.97;2523537;28;20046;-76
2023/12/20 01:42:07;;;;;;;8.10;6.50;;;;;;;4.70;84.17;100495.38;2524643;28;20045;-76
2023/12/20 01:43:21;;;;;;;12.52;8.18;;;;;;;4.70;84.16;100501.44;2524550;28;20060;-77
2023/12/20 01:44:36;;;;;;;9.63;7.55;;;;;;;4.71;84.39;100505.75;2516362;28;20054;-76
2023/12/20 01:45:50;;;;;;;9.57;6.90;;;;;;;4.72;84.53;100499.72;2524792;28;20079;-76
2023/12/20 01:47:04;;;;;;;11.18;7.97;;;;;;;4.73;84.34;100495.44;2524332;28;20046;-77
2023/12/20 01:48:19;;;;;;;11.98;8.30;;;;;;;4.73;84.43;100492.84;2523795;28;20038;-77
2023/12/20 01:49:33;;;;;;;9.25;8.07;;;;;;;4.73;84.35;100495.44;2524956;28;20057;-77
2023/12/20 01:50:47;;;;;;;10.95;8.25;;;;;;;4.72;84.56;100491.97;2524389;28;20049;-77
2023/12/20 01:52:01;;;;;;;10.07;8.52;;;;;;;4.72;84.41;100499.72;2523889;28;20053;-77
2023/12/20 01:53:16;;;;;;;10.95;7.70;;;;;;;4.72;84.50;100485.94;2524202;28;20495;-77
2023/12/20 01:54:30;;;;;;;10.88;7.63;;;;;;;4.70;84.67;100488.50;2524510;28;20050;-77
2023/12/20 01:55:45;;;;;;;8.57;6.93;;;;;;;4.72;84.71;100493.69;2524164;28;20061;-77
2023/12/20 01:56:58;;;;;;;8.70;7.55;;;;;;;4.71;84.69;100485.06;2524300;28;20046;-77
2023/12/20 01:58:14;;;;;;;10.02;7.47;;;;;;;4.73;84.46;100491.13;2524906;28;20419;-77
2023/12/20 01:59:28;;;;;;;8.05;6.20;;;;;;;4.73;84.66;100487.69;2523699;28;20046;-77
2023/12/20 02:00:44;;;;;;;8.30;6.32;;;;;;;4.75;84.78;100479.09;2523401;28;20140;-77
2023/12/20 02:01:58;;;;;;;8.90;6.85;;;;;;;4.75;84.74;100485.97;2524042;28;20046;-76
2023/12/20 02:03:12;;;;;;;8.85;6.85;;;;;;;4.75;84.74;100489.44;2523295;28;20628;-76
2023/12/20 02:04:26;;;;;;;9.23;7.10;;;;;;;4.75;84.60;100486.84;2523707;28;20065;-77
2023/12/20 02:05:41;;;;;;;8.57;6.22;;;;;;;4.75;84.72;100479.09;2516660;28;20046;-77
2023/12/20 02:06:55;;;;;;;10.38;6.50;;;;;;;4.74;84.70;100485.09;2524516;28;20054;-77
2023/12/20 02:08:10;;;;;;;7.82;6.75;;;;;;;4.74;84.77;100490.28;2523676;28;20511;-77
2023/12/20 02:09:23;;;;;;;10.75;7.20;;;;;;;4.76;84.72;100495.47;2524430;28;20046;-77
2023/12/20 02:10:37;;;;;;;9.15;6.32;;;;;;;4.75;84.70;100486.84;2523926;28;20422;-77
2023/12/20 02:11:51;;;;;;;10.50;7.20;;;;;;;4.75;84.91;100499.78;2523502;28;20048;-77
2023/12/20 02:13:06;;;;;;;9.38;7.93;;;;;;;4.75;84.72;100497.19;2524651;28;20050;-77
2023/12/20 02:14:19;;;;;;;9.65;6.28;;;;;;;4.76;84.81;100491.16;2525483;28;20045;-77
2023/12/20 02:15:34;;;;;;;11.02;8.48;;;;;;;4.76;84.81;100482.53;2526179;28;20149;-77
2023/12/20 02:16:48;;;;;;;8.82;6.15;;;;;;;4.77;84.75;100489.44;2526772;28;20052;-78
2023/12/20 02:18:03;;;;;;;11.20;6.43;;;;;;;4.77;84.90;100485.13;2526667;28;20046;-78
2023/12/20 02:19:17;;;;;;;10.50;7.72;;;;;;;4.79;84.92;100490.34;2525825;28;20046;-78
2023/12/20 02:20:32;;;;;;;12.98;7.40;;;;;;;4.77;84.96;100490.31;2526847;28;20152;-78
2023/12/20 02:21:46;;;;;;;10.32;7.25;;;;;;;4.76;84.92;100488.56;2525986;28;20053;-78
2023/12/20 02:23:01;;;;;;;11.90;7.05;;;;;;;4.77;84.84;100482.53;2527237;28;20042;-78
2023/12/20 02:24:14;;;;;;;9.40;6.50;;;;;;;4.79;85.08;100490.34;2525810;28;20053;-77
2023/12/20 02:25:29;;;;;;;11.25;7.88;;;;;;;4.79;84.92;100488.59;2526592;28;20060;-79
2023/12/20 02:26:42;;;;;;;10.52;6.78;;;;;;;4.80;84.82;100484.31;2526250;28;20065;-78
2023/12/20 02:27:57;;;;;;;10.48;7.63;;;;;;;4.80;85.07;100485.19;2526615;28;20038;-78
2023/12/20 02:29:10;;;;;;;10.40;7.95;;;;;;;4.82;85.13;100482.59;2525751;28;20061;-78
2023/12/20 02:30:25;;;;;;;10.60;7.43;;;;;;;4.80;85.22;100486.88;2526524;28;20050;-78
2023/12/20 02:31:38;;;;;;;11.30;7.15;;;;;;;4.79;84.94;100488.59;2525935;28;20040;-78
2023/12/20 02:32:53;;;;;;;10.60;7.30;;;;;;;4.82;85.03;100492.94;2526141;28;20128;-78
2023/12/20 02:34:07;;;;;;;9.25;6.82;;;;;;;4.82;85.07;100490.38;2526168;28;20049;-79
2023/12/20 02:35:21;;;;;;;10.45;6.78;;;;;;;4.82;85.06;100501.56;2526129;28;20054;-78
2023/12/20 02:36:34;;;;;;;9.90;7.18;;;;;;;4.81;85.22;100497.25;2525980;28;20345;-79
2023/12/20 02:37:50;;;;;;;8.43;6.80;;;;;;;4.81;85.13;100489.50;2526522;28;20042;-78
2023/12/20 02:39:04;;;;;;;11.18;7.35;;;;;;;4.81;85.17;100494.69;2526478;28;20046;-78
2023/12/20 02:40:18;;;;;;;9.65;6.63;;;;;;;4.82;85.31;100498.13;2516547;28;20366;-78
2023/12/20 02:41:32;;;;;;;7.68;5.63;;;;;;;4.82;85.27;100498.97;2516208;28;20077;-79
2023/12/20 02:42:46;;;;;;;11.32;7.13;;;;;;;4.82;85.44;100491.22;2516604;28;20046;-78
2023/12/20 02:44:00;;;;;;;9.45;7.20;;;;;;;4.82;85.31;100496.41;2516072;28;20405;-79
2023/12/20 02:45:14;;;;;;;11.55;7.15;;;;;;;4.84;85.21;100500.75;2516057;28;20052;-78
2023/12/20 02:46:28;;;;;;;13.68;6.82;;;;;;;4.84;85.31;100509.34;2516183;28;20050;-78
2023/12/20 02:47:42;;;;;;;10.20;7.30;;;;;;;4.85;85.25;100507.63;2519199;28;20099;-78
2023/12/20 02:48:56;;;;;;;13.93;6.68;;;;;;;4.85;85.45;100512.81;2524706;28;20487;-78
2023/12/20 02:50:10;;;;;;;8.82;6.80;;;;;;;4.86;85.31;100509.38;2525260;28;20076;-78
2023/12/20 02:51:23;;;;;;;10.07;7.32;;;;;;;4.86;85.35;100501.63;2524684;28;20057;-78
2023/12/20 02:52:38;;;;;;;10.57;6.82;;;;;;;4.86;85.26;100517.16;2524816;28;20503;-79
2023/12/20 02:53:53;;;;;;;10.13;8.00;;;;;;;4.86;85.29;100511.97;2525767;28;20049;-78
2023/12/20 02:55:07;;;;;;;10.27;7.53;;;;;;;4.85;85.33;100521.44;2525482;28;20107;-79
2023/12/20 02:56:21;;;;;;;11.23;8.55;;;;;;;4.86;85.40;100523.19;2525366;28;20046;-78
2023/12/20 02:57:36;;;;;;;13.98;7.70;;;;;;;4.86;85.40;100522.31;2524449;28;20053;-78
2023/12/20 02:58:49;;;;;;;13.10;8.60;;;;;;;4.86;85.73;100518.00;2525624;28;20503;-78
2023/12/20 03:00:04;;;;;;;11.40;7.60;;;;;;;4.87;85.48;100516.28;2525202;28;20046;-78
2023/12/20 03:01:18;;;;;;;13.73;8.20;;;;;;;4.87;85.54;100521.47;2526461;28;20042;-78
2023/12/20 03:02:32;;;;;;;14.60;8.70;;;;;;;4.87;85.50;100526.63;2525893;28;20058;-78
2023/12/20 03:03:46;;;;;;;16.55;8.77;;;;;;;4.87;85.56;100522.31;2524800;28;20447;-78
2023/12/20 03:05:00;;;;;;;10.93;7.65;;;;;;;4.88;85.60;100518.91;2525794;28;20153;-78
2023/12/20 03:06:17;;;;;;;11.52;8.77;;;;;;;4.88;85.74;100521.50;2525200;28;20092;-78
2023/12/20 03:07:31;;;;;;;11.35;7.65;;;;;;;4.87;85.59;100514.56;2524522;28;20046;-77
2023/12/20 03:08:45;;;;;;;11.82;8.25;;;;;;;4.87;85.74;100526.63;2525691;28;20050;-78
2023/12/20 03:10:00;;;;;;;12.45;9.48;;;;;;;4.86;85.62;100525.78;2526032;28;20042;-78
2023/12/20 03:11:14;;;;;;;14.10;7.85;;;;;;;4.87;85.57;100524.03;2524896;28;20136;-79
2023/12/20 03:12:28;;;;;;;12.40;8.00;;;;;;;4.87;85.67;100516.28;2525372;28;20050;-78
2023/12/20 03:13:42;;;;;;;9.95;7.63;;;;;;;4.87;85.74;100524.03;2524596;28;20050;-77
2023/12/20 03:14:56;;;;;;;12.30;7.63;;;;;;;4.85;85.95;100518.84;2525037;28;20048;-78
2023/12/20 03:16:10;;;;;;;12.40;8.43;;;;;;;4.86;85.83;100522.31;2524171;28;20052;-77
2023/12/20 03:17:24;;;;;;;13.00;9.15;;;;;;;4.86;85.84;100523.19;2525014;28;20495;-78
2023/12/20 03:18:38;;;;;;;11.43;7.50;;;;;;;4.87;85.89;100524.91;2524674;28;20050;-78
2023/12/20 03:19:52;;;;;;;11.73;7.63;;;;;;;4.87;85.88;100524.03;2524464;28;20065;-77
2023/12/20 03:21:06;;;;;;;10.43;7.75;;;;;;;4.86;85.92;100512.84;2524800;28;20602;-77
2023/12/20 03:22:20;;;;;;;10.50;7.05;;;;;;;4.87;85.78;100516.28;2524668;28;20637;-77
2023/12/20 03:23:34;;;;;;;11.25;7.93;;;;;;;4.87;85.92;100514.56;2523840;28;20058;-78
2023/12/20 03:24:47;;;;;;;12.23;7.18;;;;;;;4.88;85.97;100515.44;2524604;28;20088;-77
2023/12/20 03:26:03;;;;;;;12.25;6.72;;;;;;;4.88;85.74;100510.25;2524689;28;20625;-77
2023/12/20 03:27:17;;;;;;;11.25;8.82;;;;;;;4.88;85.79;100515.44;2523232;28;20285;-78
2023/12/20 03:28:31;;;;;;;11.85;8.98;;;;;;;4.87;85.93;100518.88;2524399;28;20056;-78
2023/12/20 03:29:45;;;;;;;10.77;7.93;;;;;;;4.86;86.04;100523.19;2524230;28;20171;-78
2023/12/20 03:30:59;;;;;;;11.32;7.07;;;;;;;4.85;86.02;100516.25;2524549;28;20418;-77
2023/12/20 03:32:13;;;;;;;11.57;7.47;;;;;;;4.85;86.01;100518.84;2523416;28;20057;-77
2023/12/20 03:33:27;;;;;;;13.82;7.72;;;;;;;4.86;86.00;100527.50;2524412;28;20140;-78
2023/12/20 03:34:40;;;;;;;8.43;6.45;;;;;;;4.87;86.13;100534.38;2524517;28;20085;-78
2023/12/20 03:35:55;;;;;;;14.00;7.72;;;;;;;4.86;85.94;100532.66;2524227;28;20430;-77
2023/12/20 03:37:08;;;;;;;9.07;7.28;;;;;;;4.86;86.14;100528.34;2524304;28;20046;-77
2023/12/20 03:38:23;;;;;;;10.77;7.55;;;;;;;4.88;86.08;100536.09;2524063;28;20041;-78
2023/12/20 03:39:37;;;;;;;13.35;8.77;;;;;;;4.88;86.16;100531.84;2523677;28;20495;-78
2023/12/20 03:40:51;;;;;;;13.00;7.80;;;;;;;4.89;86.19;100523.22;2524469;28;20054;-77
2023/12/20 03:42:06;;;;;;;10.23;7.78;;;;;;;4.89;86.17;100517.19;2524272;28;20054;-78
2023/12/20 03:43:20;;;;;;;11.80;7.50;;;;;;;4.89;86.17;100517.19;2523511;28;20141;-79
2023/12/20 03:44:34;;;;;;;12.57;8.48;;;;;;;4.90;86.22;100518.91;2524496;28;20050;-79
2023/12/20 03:45:48;;;;;;;16.77;7.72;;;;;;;4.89;86.37;100518.03;2523593;28;20389;-79
2023/12/20 03:47:02;;;;;;;9.80;7.93;;;;;;;4.89;86.10;100517.19;2524173;28;20133;-79
2023/12/20 03:48:16;;;;;;;11.85;7.78;;;;;;;4.91;86.25;100518.06;2524435;28;20050;-79
2023/12/20 03:49:30;;;;;;;10.43;7.43;;;;;;;4.91;86.36;100516.34;2524696;28;20058;-79
2023/12/20 03:50:44;;;;;;;10.90;7.40;;;;;;;4.91;86.24;100513.75;2524129;28;20057;-79
2023/12/20 03:51:57;;;;;;;15.43;8.55;;;;;;;4.91;86.09;100507.72;2524042;28;20042;-79
2023/12/20 03:53:12;;;;;;;11.77;7.38;;;;;;;4.91;86.18;100511.19;2524129;28;20037;-79
2023/12/20 03:54:25;;;;;;;12.30;8.60;;;;;;;4.90;86.17;100518.91;2524841;28;20054;-77
2023/12/20 03:55:40;;;;;;;10.13;6.85;;;;;;;4.90;86.42;100522.34;2523664;28;20504;-78
2023/12/20 03:56:53;;;;;;;10.70;7.10;;;;;;;4.90;86.19;100524.94;2524658;28;20053;-79
2023/12/20 03:58:09;;;;;;;11.57;7.53;;;;;;;4.91;86.18;100525.84;2524102;28;20046;-78
2023/12/20 03:59:22;;;;;;;10.30;7.25;;;;;;;4.91;86.19;100531.88;2523738;28;20050;-78
2023/12/20 04:00:37;;;;;;;9.55;7.20;;;;;;;4.91;86.25;100525.84;2524308;28;20046;-78
2023/12/20 04:01:50;;;;;;;10.68;7.55;;;;;;;4.92;86.44;100514.63;2523892;28;20053;-78
2023/12/20 04:03:05;;;;;;;17.15;7.80;;;;;;;4.91;86.34;100523.25;2523779;28;20046;-78
2023/12/20 04:04:19;;;;;;;9.32;6.68;;;;;;;4.93;86.51;100529.28;2523907;28;20499;-78
2023/12/20 04:05:33;;;;;;;11.50;7.97;;;;;;;4.93;86.35;100516.34;2524440;28;20045;-78
2023/12/20 04:06:46;;;;;;;9.27;6.97;;;;;;;4.93;86.30;100535.34;2523984;28;20046;-78
2023/12/20 04:08:03;;;;;;;10.15;7.35;;;;;;;4.94;86.46;100529.31;2523859;28;20052;-78
2023/12/20 04:09:16;;;;;;;10.50;8.65;;;;;;;4.94;86.36;100528.44;2524427;28;20042;-79
2023/12/20 04:10:31;;;;;;;11.05;6.90;;;;;;;4.95;86.48;100532.75;2524067;28;20478;-78
2023/12/20 04:11:44;;;;;;;8.15;6.40;;;;;;;4.96;86.43;100529.34;2523483;28;20042;-79
2023/12/20 04:12:58;;;;;;;12.20;6.68;;;;;;;4.97;86.39;100533.66;2523761;28;20388;-78
2023/12/20 04:14:14;;;;;;;11.02;7.30;;;;;;;4.97;86.43;100544.84;2524121;28;20049;-78
2023/12/20 04:15:28;;;;;;;11.80;6.68;;;;;;;4.97;86.55;100541.41;2523544;28;20600;-78
2023/12/20 04:16:42;;;;;;;10.48;5.90;;;;;;;4.98;86.65;100544.03;2523465;28;20061;-77
2023/12/20 04:17:56;;;;;;;12.75;7.45;;;;;;;4.99;86.60;100537.13;2523437;28;20414;-78
2023/12/20 04:19:10;;;;;;;9.73;6.47;;;;;;;5.00;86.41;100539.72;2523295;28;20075;-78
2023/12/20 04:20:24;;;;;;;7.43;5.80;;;;;;;4.99;86.44;100539.72;2523381;28;20368;-77
2023/12/20 04:21:38;;;;;;;9.02;5.90;;;;;;;5.01;86.48;100543.19;2523332;28;20202;-78
2023/12/20 04:22:52;;;;;;;8.45;5.75;;;;;;;5.02;86.42;100538.03;2523645;28;20083;-78
2023/12/20 04:24:06;;;;;;;10.30;6.63;;;;;;;5.04;86.67;100543.22;2523419;28;20046;-77
2023/12/20 04:25:20;;;;;;;8.85;7.13;;;;;;;5.06;86.65;100540.66;2522786;28;20050;-78
2023/12/20 04:26:34;;;;;;;8.07;5.95;;;;;;;5.06;86.55;100541.53;2523022;28;20054;-78
2023/12/20 04:27:48;;;;;;;7.97;6.40;;;;;;;5.06;86.53;100536.38;2523183;28;20046;-78
2023/12/20 04:29:02;;;;;;;9.38;5.80;;;;;;;5.07;86.68;100548.44;2524214;28;20048;-78
2023/12/20 04:30:17;;;;;;;7.82;6.43;;;;;;;5.06;86.60;100545.81;2523405;28;20041;-78
2023/12/20 04:31:31;;;;;;;9.57;5.85;;;;;;;5.07;86.37;100540.69;2523260;28;20046;-78
2023/12/20 04:32:45;;;;;;;8.98;7.10;;;;;;;5.07;86.19;100545.84;2522939;28;20064;-78
2023/12/20 04:33:59;;;;;;;9.27;6.63;;;;;;;5.07;86.53;100548.44;2523768;28;20364;-78
2023/12/20 04:35:13;;;;;;;10.55;5.88;;;;;;;5.08;86.45;100551.88;2523161;28;20046;-77
2023/12/20 04:36:29;;;;;;;8.85;6.72;;;;;;;5.08;86.63;100554.47;2522551;28;20423;-77
2023/12/20 04:37:43;;;;;;;7.55;5.97;;;;;;;5.07;86.49;100551.03;2522468;28;20511;-78
2023/12/20 04:38:57;;;;;;;9.93;6.15;;;;;;;5.08;86.45;100551.88;2522787;28;20046;-77
2023/12/20 04:40:11;;;;;;;10.50;6.50;;;;;;;5.08;86.65;100554.47;2521939;28;20050;-78
2023/12/20 04:41:27;;;;;;;8.75;6.32;;;;;;;5.06;86.64;100562.22;2522801;28;20058;-78
2023/12/20 04:42:40;;;;;;;10.07;6.55;;;;;;;5.08;86.53;100564.81;2522727;28;20427;-78
2023/12/20 04:43:55;;;;;;;8.63;5.57;;;;;;;5.08;86.65;100564.81;2522564;28;20061;-78
2023/12/20 04:45:09;;;;;;;8.70;6.20;;;;;;;5.08;86.50;100557.06;2522447;28;20054;-78
2023/12/20 04:46:25;;;;;;;8.32;6.22;;;;;;;5.08;86.63;100554.47;2523541;28;20423;-78
2023/12/20 04:47:38;;;;;;;8.27;4.88;;;;;;;5.08;86.49;100555.34;2523558;28;20038;-79
2023/12/20 04:48:53;;;;;;;7.72;5.97;;;;;;;5.08;86.55;100552.75;2522754;28;20042;-77
2023/12/20 04:50:07;;;;;;;7.40;6.70;;;;;;;5.09;86.53;100559.69;2523300;28;20038;-79
2023/12/20 04:51:22;;;;;;;12.88;6.60;;;;;;;5.08;86.49;100565.69;2523712;28;20073;-78
2023/12/20 04:52:35;;;;;;;7.38;6.60;;;;;;;5.08;86.51;100554.47;2523166;28;20058;-78
2023/12/20 04:53:50;;;;;;;6.60;5.07;;;;;;;5.08;86.53;100560.50;2523656;28;20132;-78
2023/12/20 04:55:04;;;;;;;8.57;6.25;;;;;;;5.09;86.59;100558.81;2524319;28;20057;-79
2023/12/20 04:56:18;;;;;;;8.20;4.95;;;;;;;5.09;86.52;100567.44;2522322;28;20046;-77
2023/12/20 04:57:32;;;;;;;7.35;5.75;;;;;;;5.10;86.52;100561.41;2525480;28;20054;-79
2023/12/20 04:58:46;;;;;;;7.43;5.60;;;;;;;5.12;86.70;100574.38;2525762;28;20511;-78
2023/12/20 05:00:00;;;;;;;11.20;6.47;;;;;;;5.11;86.71;100576.09;2525867;28;20041;-79
2023/12/20 05:01:14;;;;;;;8.15;5.82;;;;;;;5.12;86.71;100566.59;2526006;28;20477;-77
2023/12/20 05:02:29;;;;;;;9.15;7.90;;;;;;;5.12;86.52;100576.94;2525210;28;20065;-77
2023/12/20 05:03:44;;;;;;;10.13;6.93;;;;;;;5.12;86.71;100571.78;2524838;28;20089;-78
2023/12/20 05:04:57;;;;;;;9.65;6.03;;;;;;;5.12;86.74;100574.38;2525626;28;20046;-79
2023/12/20 05:06:12;;;;;;;8.60;6.28;;;;;;;5.11;86.59;100573.50;2525278;28;20088;-78
2023/12/20 05:07:25;;;;;;;23.40;17.08;;;;;;;5.11;86.69;100577.78;2524858;28;20054;-78
2023/12/20 05:08:39;;;;;;;29.92;25.77;;;;;;;5.11;86.45;100586.44;2524589;28;20046;-77
2023/12/20 05:09:53;;;;;;;11.48;8.95;;;;;;;5.11;86.60;100581.25;2524988;28;20399;-77
2023/12/20 05:11:08;;;;;;;9.82;7.63;;;;;;;5.11;86.52;100586.44;2524760;28;20050;-77
2023/12/20 05:12:21;;;;;;;19.48;12.05;;;;;;;5.12;86.63;100584.72;2524223;28;20046;-78
2023/12/20 05:13:36;;;;;;;14.60;10.02;;;;;;;5.12;86.53;100577.81;2525786;28;20449;-79
2023/12/20 05:14:49;;;;;;;17.25;13.90;;;;;;;5.12;86.44;100583.00;2525423;28;20054;-78
2023/12/20 05:16:04;;;;;;;20.80;14.98;;;;;;;5.12;86.46;100585.56;2525432;28;20499;-77
2023/12/20 05:17:18;;;;;;;9.68;6.93;;;;;;;5.12;86.62;100580.41;2525134;28;20053;-78
2023/12/20 05:18:33;;;;;;;26.17;16.25;;;;;;;5.12;86.44;100582.13;2524781;28;20060;-78
2023/12/20 05:19:47;;;;;;;44.28;27.48;;;;;;;5.12;86.26;100579.53;2517030;28;20042;-78
2023/12/20 05:21:01;;;;;;;21.17;14.55;;;;;;;5.12;86.51;100576.94;2525961;28;20131;-78
2023/12/20 05:22:15;;;;;;;20.25;13.45;;;;;;;5.13;86.91;100576.94;2525347;28;20250;-78
2023/12/20 05:23:29;;;;;;;8.38;7.38;;;;;;;5.14;86.59;100581.28;2525028;28;20060;-79
2023/12/20 05:24:43;;;;;;;10.65;7.35;;;;;;;5.14;86.50;100586.47;2525406;28;20054;-77
2023/12/20 05:25:58;;;;;;;16.98;11.38;;;;;;;5.15;86.62;100595.97;2526073;28;20046;-78
2023/12/20 05:27:12;;;;;;;11.68;7.97;;;;;;;5.15;86.46;100585.59;2524394;28;20050;-78
2023/12/20 05:28:26;;;;;;;12.25;8.98;;;;;;;5.16;86.62;100587.38;2524654;28;20064;-78
2023/12/20 05:29:40;;;;;;;9.48;7.45;;;;;;;5.16;86.65;100589.94;2525052;28;20053;-78
2023/12/20 05:30:54;;;;;;;8.73;5.88;;;;;;;5.17;86.48;100591.69;2525217;28;20052;-78
2023/12/20 05:32:09;;;;;;;11.95;8.07;;;;;;;5.17;86.59;100586.50;2525285;28;20518;-78
2023/12/20 05:33:22;;;;;;;12.05;8.82;;;;;;;5.17;86.65;100591.69;2525739;28;20065;-78
2023/12/20 05:34:38;;;;;;;9.55;6.78;;;;;;;5.17;86.44;100593.41;2524514;28;20505;-77
2023/12/20 05:35:51;;;;;;;10.80;8.10;;;;;;;5.17;86.54;100591.69;2524558;28;20046;-78
2023/12/20 05:37:06;;;;;;;6.90;6.20;;;;;;;5.16;86.52;100591.66;2525994;28;20054;-78
2023/12/20 05:38:19;;;;;;;9.43;6.30;;;;;;;5.16;86.53;100594.22;2525680;28;20053;-78
2023/12/20 05:39:34;;;;;;;7.35;6.55;;;;;;;5.16;86.49;100594.22;2524063;28;20046;-78
2023/12/20 05:40:47;;;;;;;12.88;8.15;;;;;;;5.16;86.51;100595.13;2516683;28;20683;-79
2023/12/20 05:42:02;;;;;;;10.98;9.07;;;;;;;5.17;86.67;100591.69;2525729;28;20046;-78
2023/12/20 05:43:15;;;;;;;12.23;9.95;;;;;;;5.18;86.68;100592.53;2524887;28;20050;-78
2023/12/20 05:44:29;;;;;;;14.48;11.57;;;;;;;5.18;86.69;100603.75;2524878;28;20500;-78
2023/12/20 05:45:43;;;;;;;8.18;6.13;;;;;;;5.17;86.51;100604.63;2525085;28;20046;-78
2023/12/20 05:46:57;;;;;;;15.23;13.60;;;;;;;5.18;86.56;100601.16;2525827;28;20053;-78